createdAt,value
2022-08-20T00:01:09.377Z,99.90
2022-08-20T00:03:39.076Z,99.90
2022-08-20T00:06:17.126Z,99.90
2022-08-20T00:08:45.326Z,99.90
2022-08-20T00:11:15.535Z,99.90
2022-08-20T00:13:45.849Z,99.90
2022-08-20T00:16:15.430Z,99.90
2022-08-20T00:18:42.954Z,99.90
2022-08-20T00:21:12.825Z,99.90
2022-08-20T00:23:48.504Z,99.90
2022-08-20T00:26:16.584Z,99.90
2022-08-20T00:28:43.479Z,99.90
2022-08-20T00:31:13.421Z,99.90
2022-08-20T00:33:40.379Z,99.90
2022-08-20T00:36:09.593Z,99.90
2022-08-20T00:38:42.122Z,99.90
2022-08-20T00:41:13.731Z,99.90
2022-08-20T00:43:53.712Z,99.90
2022-08-20T00:46:30.893Z,99.90
2022-08-20T00:49:00.026Z,99.90
2022-08-20T00:51:33.649Z,99.90
2022-08-20T00:54:11.323Z,99.90
2022-08-20T00:56:40.876Z,99.90
2022-08-20T00:59:13.165Z,99.90
2022-08-20T01:01:55.697Z,99.90
2022-08-20T01:04:26.484Z,99.90
2022-08-20T01:06:54.328Z,99.90
2022-08-20T01:09:50.369Z,99.90
2022-08-20T01:12:09.996Z,99.90
2022-08-20T01:14:45.735Z,99.90
2022-08-20T01:17:17.762Z,99.90
2022-08-20T01:20:10.658Z,99.90
2022-08-20T01:23:08.787Z,99.90
2022-08-20T01:25:47.929Z,99.90
2022-08-20T01:28:19.599Z,99.90
2022-08-20T01:30:46.731Z,99.90
2022-08-20T01:33:13.682Z,99.90
2022-08-20T01:35:42.512Z,99.90
2022-08-20T01:38:10.622Z,99.90
2022-08-20T01:40:56.272Z,99.90
2022-08-20T01:43:24.245Z,99.90
2022-08-20T01:45:52.951Z,99.90
2022-08-20T01:48:21.497Z,99.90
2022-08-20T01:51:02.037Z,99.90
2022-08-20T01:53:35.210Z,99.90
2022-08-20T01:56:05.168Z,99.90
2022-08-20T01:58:33.831Z,99.90
2022-08-20T02:01:00.837Z,99.90
2022-08-20T02:03:27.933Z,99.90
2022-08-20T02:05:54.809Z,99.90
2022-08-20T02:08:22.290Z,99.90
2022-08-20T02:10:50.216Z,99.90
2022-08-20T02:13:17.568Z,99.90
2022-08-20T02:15:44.622Z,99.90
2022-08-20T02:18:15.519Z,99.90
2022-08-20T02:20:43.939Z,99.90
2022-08-20T02:23:12.353Z,99.90
2022-08-20T02:25:41.932Z,99.90
2022-08-20T02:28:12.120Z,99.90
2022-08-20T02:30:45.137Z,99.90
2022-08-20T02:33:14.451Z,99.90
2022-08-20T02:35:43.272Z,99.90
2022-08-20T02:38:11.061Z,99.90
2022-08-20T02:40:38.053Z,99.90
2022-08-20T02:43:06.038Z,99.90
2022-08-20T02:45:44.091Z,99.90
2022-08-20T02:48:23.577Z,99.90
2022-08-20T02:50:56.890Z,99.90
2022-08-20T02:53:27.650Z,99.90
2022-08-20T02:55:54.553Z,99.90
2022-08-20T02:58:22.314Z,99.90
2022-08-20T03:00:49.480Z,99.90
2022-08-20T03:03:20.364Z,99.90
2022-08-20T03:05:47.380Z,99.90
2022-08-20T03:08:15.082Z,99.90
2022-08-20T03:10:44.551Z,99.90
2022-08-20T03:13:12.795Z,99.90
2022-08-20T03:15:45.833Z,99.90
2022-08-20T03:18:14.011Z,99.90
2022-08-20T03:20:41.420Z,99.90
2022-08-20T03:23:08.567Z,99.90
2022-08-20T03:25:35.993Z,99.90
2022-08-20T03:28:03.416Z,99.90
2022-08-20T03:30:31.261Z,99.90
2022-08-20T03:32:58.461Z,99.90
2022-08-20T03:35:28.147Z,99.90
2022-08-20T03:37:55.619Z,99.90
2022-08-20T03:40:30.965Z,99.90
2022-08-20T03:42:58.608Z,99.90
2022-08-20T03:45:27.600Z,99.90
2022-08-20T03:47:55.964Z,99.90
2022-08-20T03:50:31.176Z,99.90
2022-08-20T03:53:00.132Z,99.90
2022-08-20T03:55:29.868Z,99.90
2022-08-20T03:58:03.244Z,99.90
2022-08-20T04:00:37.004Z,99.90
2022-08-20T04:03:05.030Z,99.90
2022-08-20T04:05:33.547Z,99.90
2022-08-20T04:08:02.893Z,99.90
2022-08-20T04:10:30.421Z,99.90
2022-08-20T04:12:57.275Z,99.90
2022-08-20T04:15:24.773Z,99.90
2022-08-20T04:17:52.827Z,99.90
2022-08-20T04:20:23.918Z,99.90
2022-08-20T04:22:58.540Z,99.90
2022-08-20T04:25:27.567Z,99.90
2022-08-20T04:27:54.509Z,99.90
2022-08-20T04:30:23.486Z,99.90
2022-08-20T04:32:50.373Z,99.90
2022-08-20T04:35:18.864Z,99.90
2022-08-20T04:37:47.431Z,99.90
2022-08-20T04:40:37.576Z,99.90
2022-08-20T04:43:05.314Z,99.90
2022-08-20T04:45:33.333Z,99.90
2022-08-20T04:48:05.716Z,99.90
2022-08-20T04:50:36.951Z,99.90
2022-08-20T04:53:06.083Z,99.90
2022-08-20T04:55:34.656Z,99.90
2022-08-20T04:58:11.216Z,99.90
2022-08-20T05:00:38.892Z,99.90
2022-08-20T05:03:09.077Z,99.90
2022-08-20T05:05:36.229Z,99.90
2022-08-20T05:08:04.247Z,99.90
2022-08-20T05:10:31.227Z,99.90
2022-08-20T05:12:58.196Z,99.90
2022-08-20T05:15:26.136Z,99.90
2022-08-20T05:18:00.836Z,99.90
2022-08-20T05:20:30.610Z,99.90
2022-08-20T05:22:59.134Z,99.90
2022-08-20T05:25:29.484Z,99.90
2022-08-20T05:28:00.646Z,99.90
2022-08-20T05:30:34.306Z,99.90
2022-08-20T05:33:03.746Z,99.90
2022-08-20T05:35:33.345Z,99.90
2022-08-20T05:38:01.475Z,99.90
2022-08-20T05:40:28.988Z,99.90
2022-08-20T05:42:56.004Z,99.90
2022-08-20T05:45:22.889Z,99.90
2022-08-20T05:47:56.459Z,99.90
2022-08-20T05:50:23.666Z,99.90
2022-08-20T05:52:51.048Z,99.90
2022-08-20T05:55:18.007Z,99.90
2022-08-20T05:57:45.861Z,99.90
2022-08-20T06:00:14.343Z,99.90
2022-08-20T06:03:00.818Z,99.90
2022-08-20T06:05:27.768Z,99.90
2022-08-20T06:07:55.967Z,99.90
2022-08-20T06:10:34.925Z,99.90
2022-08-20T06:13:03.022Z,99.90
2022-08-20T06:15:31.731Z,99.90
2022-08-20T06:17:59.274Z,99.90
2022-08-20T06:20:29.025Z,99.90
2022-08-20T06:22:56.338Z,99.90
2022-08-20T06:25:23.276Z,99.90
2022-08-20T06:27:50.286Z,99.90
2022-08-20T06:30:17.669Z,99.90
2022-08-20T06:32:45.709Z,99.90
2022-08-20T06:35:14.969Z,99.90
2022-08-20T06:37:43.943Z,99.90
2022-08-20T06:40:16.492Z,99.90
2022-08-20T06:42:48.176Z,99.90
2022-08-20T06:45:18.747Z,99.90
2022-08-20T06:47:47.505Z,99.90
2022-08-20T06:50:18.832Z,99.90
2022-08-20T06:52:52.203Z,99.90
2022-08-20T06:55:20.801Z,99.90
2022-08-20T06:57:48.452Z,99.90
2022-08-20T07:00:20.014Z,99.90
2022-08-20T07:02:49.976Z,99.90
2022-08-20T07:05:17.106Z,99.90
2022-08-20T07:07:51.012Z,99.90
2022-08-20T07:10:20.437Z,99.90
2022-08-20T07:12:50.172Z,99.90
2022-08-20T07:15:18.792Z,99.90
2022-08-20T07:17:50.950Z,99.90
2022-08-20T07:20:18.508Z,99.90
2022-08-20T07:22:45.506Z,99.90
2022-08-20T07:25:15.703Z,99.90
2022-08-20T07:27:43.333Z,99.90
2022-08-20T07:30:33.618Z,99.90
2022-08-20T07:33:20.752Z,99.90
2022-08-20T07:35:49.054Z,99.90
2022-08-20T07:38:24.900Z,99.90
2022-08-20T07:40:57.408Z,99.90
2022-08-20T07:43:24.449Z,99.90
2022-08-20T07:45:57.558Z,99.90
2022-08-20T07:48:32.602Z,99.90
2022-08-20T07:51:05.211Z,99.90
2022-08-20T07:53:36.718Z,99.90
2022-08-20T07:56:06.371Z,99.90
2022-08-20T07:58:35.901Z,99.90
2022-08-20T08:01:03.843Z,99.90
2022-08-20T08:03:39.512Z,99.90
2022-08-20T08:06:29.741Z,99.90
2022-08-20T08:09:14.191Z,99.90
2022-08-20T08:11:47.862Z,99.90
2022-08-20T08:14:18.952Z,99.90
2022-08-20T08:16:46.113Z,99.90
2022-08-20T08:19:17.150Z,99.90
2022-08-20T08:21:44.463Z,99.90
2022-08-20T08:24:15.440Z,99.90
2022-08-20T08:26:46.203Z,99.90
2022-08-20T08:29:13.571Z,99.90
2022-08-20T08:31:41.366Z,99.90
2022-08-20T08:34:08.762Z,99.90
2022-08-20T08:36:35.659Z,99.90
2022-08-20T08:39:02.505Z,99.90
2022-08-20T08:41:39.929Z,99.90
2022-08-20T08:44:12.819Z,99.90
2022-08-20T08:46:43.526Z,99.90
2022-08-20T08:49:23.216Z,99.90
2022-08-20T08:51:56.663Z,99.90
2022-08-20T08:54:27.536Z,99.90
2022-08-20T08:56:54.820Z,99.90
2022-08-20T08:59:23.221Z,99.90
2022-08-20T09:01:57.251Z,99.90
2022-08-20T09:04:36.143Z,99.90
2022-08-20T09:07:05.283Z,99.90
2022-08-20T09:09:37.204Z,99.90
2022-08-20T09:12:13.336Z,99.90
2022-08-20T09:14:41.096Z,99.90
2022-08-20T09:17:08.239Z,99.90
2022-08-20T09:19:35.121Z,99.90
2022-08-20T09:22:08.780Z,99.90
2022-08-20T09:24:35.896Z,99.90
2022-08-20T09:27:02.826Z,99.90
2022-08-20T09:29:29.861Z,99.90
2022-08-20T09:32:05.664Z,99.90
2022-08-20T09:34:58.978Z,99.90
2022-08-20T09:37:28.852Z,99.90
2022-08-20T09:39:57.923Z,99.90
2022-08-20T09:42:28.767Z,99.90
2022-08-20T09:44:56.288Z,99.90
2022-08-20T09:47:23.270Z,99.90
2022-08-20T09:49:50.339Z,99.90
2022-08-20T09:52:23.661Z,99.90
2022-08-20T09:54:52.616Z,99.90
2022-08-20T09:57:19.595Z,99.90
2022-08-20T09:59:51.568Z,99.90
2022-08-20T10:02:18.437Z,99.90
2022-08-20T10:04:45.369Z,99.00
2022-08-20T10:07:13.044Z,98.90
2022-08-20T10:09:42.929Z,99.80
2022-08-20T10:12:10.167Z,99.00
2022-08-20T10:14:37.046Z,98.60
2022-08-20T10:17:04.269Z,98.20
2022-08-20T10:19:32.005Z,97.80
2022-08-20T10:21:59.152Z,98.00
2022-08-20T10:24:26.769Z,97.40
2022-08-20T10:26:59.228Z,97.10
2022-08-20T10:29:27.648Z,97.10
2022-08-20T10:31:57.096Z,96.20
2022-08-20T10:34:25.269Z,95.70
2022-08-20T10:36:52.388Z,96.50
2022-08-20T10:39:19.282Z,97.00
2022-08-20T10:41:46.168Z,96.80
2022-08-20T10:44:13.043Z,97.20
2022-08-20T10:46:39.953Z,97.30
2022-08-20T10:49:06.795Z,96.90
2022-08-20T10:51:33.649Z,97.50
2022-08-20T10:54:00.721Z,97.30
2022-08-20T10:56:27.620Z,97.20
2022-08-20T10:58:54.459Z,96.90
2022-08-20T11:01:31.462Z,96.40
2022-08-20T11:04:00.044Z,96.00
2022-08-20T11:06:26.920Z,96.50
2022-08-20T11:08:53.824Z,96.70
2022-08-20T11:11:23.930Z,96.80
2022-08-20T11:13:50.789Z,96.10
2022-08-20T11:16:17.775Z,95.20
2022-08-20T11:18:47.342Z,95.20
2022-08-20T11:21:14.808Z,96.50
2022-08-20T11:23:41.672Z,96.20
2022-08-20T11:26:08.785Z,96.00
2022-08-20T11:28:35.665Z,95.50
2022-08-20T11:31:02.663Z,94.70
2022-08-20T11:33:29.655Z,95.60
2022-08-20T11:35:56.600Z,94.50
2022-08-20T11:38:23.477Z,93.70
2022-08-20T11:40:50.439Z,93.60
2022-08-20T11:43:18.208Z,93.80
2022-08-20T11:45:48.231Z,95.50
2022-08-20T11:48:15.322Z,95.00
2022-08-20T11:50:42.347Z,94.20
2022-08-20T11:53:09.273Z,94.70
2022-08-20T11:55:37.372Z,95.40
2022-08-20T11:58:06.062Z,95.50
2022-08-20T12:00:34.062Z,95.90
2022-08-20T12:03:08.965Z,95.50
2022-08-20T12:05:38.516Z,95.00
2022-08-20T12:08:06.406Z,95.70
2022-08-20T12:10:34.340Z,94.30
2022-08-20T12:13:01.709Z,94.70
2022-08-20T12:15:32.275Z,93.20
2022-08-20T12:17:59.299Z,93.70
2022-08-20T12:20:26.284Z,93.50
2022-08-20T12:22:54.142Z,93.60
2022-08-20T12:25:21.086Z,94.50
2022-08-20T12:27:47.935Z,95.20
2022-08-20T12:30:17.725Z,95.10
2022-08-20T12:32:44.904Z,95.90
2022-08-20T12:35:13.227Z,95.30
2022-08-20T12:37:40.816Z,94.50
2022-08-20T12:40:12.266Z,96.20
2022-08-20T12:42:39.358Z,94.60
2022-08-20T12:45:07.759Z,93.90
2022-08-20T12:47:38.508Z,94.40
2022-08-20T12:50:11.378Z,93.40
2022-08-20T12:52:38.888Z,93.70
2022-08-20T12:55:07.553Z,93.60
2022-08-20T12:57:44.126Z,94.50
2022-08-20T13:00:44.353Z,93.50
2022-08-20T13:03:14.649Z,94.80
2022-08-20T13:05:41.615Z,94.60
2022-08-20T13:08:10.380Z,94.70
2022-08-20T13:10:45.790Z,94.70
2022-08-20T13:13:14.543Z,95.00
2022-08-20T13:15:41.767Z,95.00
2022-08-20T13:18:09.055Z,92.90
2022-08-20T13:20:36.663Z,93.00
2022-08-20T13:23:06.635Z,94.30
2022-08-20T13:25:34.279Z,93.40
2022-08-20T13:28:04.593Z,94.10
2022-08-20T13:30:33.601Z,93.20
2022-08-20T13:33:00.827Z,94.50
2022-08-20T13:35:27.694Z,94.60
2022-08-20T13:37:54.597Z,95.80
2022-08-20T13:40:21.644Z,95.30
2022-08-20T13:42:48.596Z,95.80
2022-08-20T13:45:15.559Z,95.10
2022-08-20T13:47:43.354Z,94.90
2022-08-20T13:50:18.634Z,95.00
2022-08-20T13:52:45.997Z,95.30
2022-08-20T13:55:16.552Z,95.40
2022-08-20T13:57:44.333Z,95.00
2022-08-20T14:00:15.069Z,96.40
2022-08-20T14:02:42.956Z,94.00
2022-08-20T14:05:10.425Z,93.90
2022-08-20T14:07:37.895Z,94.60
2022-08-20T14:10:08.607Z,94.30
2022-08-20T14:12:36.090Z,94.50
2022-08-20T14:15:03.156Z,95.70
2022-08-20T14:17:33.155Z,96.70
2022-08-20T14:20:08.883Z,96.70
2022-08-20T14:22:36.815Z,97.10
2022-08-20T14:25:08.709Z,93.80
2022-08-20T14:27:36.211Z,95.10
2022-08-20T14:30:06.361Z,96.00
2022-08-20T14:32:33.201Z,96.70
2022-08-20T14:35:02.149Z,94.40
2022-08-20T14:37:32.936Z,93.50
2022-08-20T14:40:02.212Z,93.90
2022-08-20T14:42:30.591Z,94.50
2022-08-20T14:45:07.780Z,93.60
2022-08-20T14:47:44.428Z,93.00
2022-08-20T14:50:15.831Z,92.60
2022-08-20T14:52:43.131Z,92.00
2022-08-20T14:55:14.057Z,91.40
2022-08-20T14:57:41.613Z,92.10
2022-08-20T15:00:11.301Z,94.10
2022-08-20T15:02:39.196Z,93.60
2022-08-20T15:05:07.891Z,95.00
2022-08-20T15:07:38.661Z,94.90
2022-08-20T15:10:09.386Z,94.20
2022-08-20T15:12:36.441Z,94.90
2022-08-20T15:15:15.995Z,93.70
2022-08-20T15:17:45.581Z,92.40
2022-08-20T15:20:19.981Z,92.80
2022-08-20T15:22:48.291Z,94.20
2022-08-20T15:25:17.383Z,94.90
2022-08-20T15:27:45.115Z,94.60
2022-08-20T15:30:16.212Z,95.50
2022-08-20T15:32:43.163Z,96.00
2022-08-20T15:35:11.569Z,95.90
2022-08-20T15:37:44.190Z,94.30
2022-08-20T15:40:13.772Z,93.00
2022-08-20T15:42:43.526Z,93.20
2022-08-20T15:45:21.942Z,93.30
2022-08-20T15:48:09.904Z,95.10
2022-08-20T15:51:07.462Z,95.50
2022-08-20T15:53:37.968Z,94.10
2022-08-20T15:56:13.649Z,94.30
2022-08-20T15:58:55.064Z,95.20
2022-08-20T16:01:37.092Z,94.60
2022-08-20T16:04:31.421Z,94.70
2022-08-20T16:07:05.740Z,96.00
2022-08-20T16:10:00.733Z,96.70
2022-08-20T16:12:40.834Z,96.50
2022-08-20T16:15:17.460Z,96.80
2022-08-20T16:17:49.527Z,97.00
2022-08-20T16:20:26.475Z,95.40
2022-08-20T16:23:03.002Z,94.20
2022-08-20T16:25:57.354Z,93.90
2022-08-20T16:28:26.667Z,94.50
2022-08-20T16:31:01.259Z,94.50
2022-08-20T16:33:46.779Z,94.00
2022-08-20T16:36:39.032Z,94.10
2022-08-20T16:39:11.881Z,93.30
2022-08-20T16:41:42.169Z,94.20
2022-08-20T16:44:31.649Z,92.30
2022-08-20T16:47:16.230Z,93.10
2022-08-20T16:49:57.616Z,93.30
2022-08-20T16:52:24.796Z,94.30
2022-08-20T16:54:51.655Z,95.60
2022-08-20T16:57:19.902Z,96.70
2022-08-20T17:00:18.779Z,97.00
2022-08-20T17:02:54.701Z,97.40
2022-08-20T17:05:23.607Z,97.50
2022-08-20T17:07:59.361Z,97.80
2022-08-20T17:10:30.202Z,98.20
2022-08-20T17:13:27.960Z,98.20
2022-08-20T17:15:59.232Z,98.30
2022-08-20T17:18:53.544Z,95.10
2022-08-20T17:21:30.628Z,96.10
2022-08-20T17:24:04.400Z,96.60
2022-08-20T17:26:40.359Z,95.70
2022-08-20T17:29:21.407Z,96.40
2022-08-20T17:31:54.873Z,96.10
2022-08-20T17:34:25.549Z,96.70
2022-08-20T17:37:08.616Z,96.30
2022-08-20T17:39:44.342Z,97.50
2022-08-20T17:42:18.177Z,98.10
2022-08-20T17:44:50.964Z,97.80
2022-08-20T17:47:22.511Z,98.00
2022-08-20T17:50:02.556Z,98.00
2022-08-20T17:52:44.386Z,95.10
2022-08-20T17:55:12.571Z,97.20
2022-08-20T17:57:44.226Z,97.80
2022-08-20T18:00:15.959Z,96.50
2022-08-20T18:02:45.637Z,96.60
2022-08-20T18:05:19.701Z,97.50
2022-08-20T18:08:04.904Z,97.00
2022-08-20T18:11:03.683Z,95.50
2022-08-20T18:13:45.123Z,97.10
2022-08-20T18:16:25.869Z,97.60
2022-08-20T18:19:15.414Z,97.30
2022-08-20T18:21:50.114Z,96.80
2022-08-20T18:24:28.839Z,96.90
2022-08-20T18:27:01.539Z,96.90
2022-08-20T18:29:37.032Z,97.30
2022-08-20T18:32:23.515Z,97.30
2022-08-20T18:34:51.285Z,96.80
2022-08-20T18:37:18.065Z,96.50
2022-08-20T18:39:46.843Z,96.00
2022-08-20T18:42:26.580Z,96.50
2022-08-20T18:44:55.403Z,96.40
2022-08-20T18:47:32.675Z,96.90
2022-08-20T18:50:16.028Z,96.70
2022-08-20T18:52:47.929Z,96.60
2022-08-20T18:55:46.289Z,96.30
2022-08-20T18:58:16.292Z,96.30
2022-08-20T19:00:47.163Z,96.40
2022-08-20T19:03:19.778Z,96.20
2022-08-20T19:05:46.587Z,96.40
2022-08-20T19:08:20.324Z,96.00
2022-08-20T19:10:55.227Z,96.10
2022-08-20T19:14:03.711Z,95.80
2022-08-20T19:16:36.112Z,96.20
2022-08-20T19:19:03.737Z,95.70
2022-08-20T19:21:35.438Z,96.20
2022-08-20T19:24:05.432Z,95.80
2022-08-20T19:26:40.124Z,96.00
2022-08-20T19:29:10.683Z,95.60
2022-08-20T19:31:38.029Z,96.30
2022-08-20T19:34:21.624Z,95.50
2022-08-20T19:37:27.757Z,95.80
2022-08-20T19:39:51.354Z,95.70
2022-08-20T19:42:23.166Z,94.90
2022-08-20T19:44:55.892Z,95.30
2022-08-20T19:47:34.386Z,95.60
2022-08-20T19:50:16.028Z,95.80
2022-08-20T19:52:56.212Z,95.00
2022-08-20T19:55:30.396Z,94.90
2022-08-20T19:58:04.915Z,94.70
2022-08-20T20:00:40.039Z,94.40
2022-08-20T20:03:16.277Z,94.10
2022-08-20T20:06:16.773Z,92.50
2022-08-20T20:09:04.954Z,92.50
2022-08-20T20:11:47.191Z,92.50
2022-08-20T20:14:17.720Z,93.40
2022-08-20T20:16:48.774Z,93.70
2022-08-20T20:19:32.697Z,94.10
2022-08-20T20:22:19.113Z,94.30
2022-08-20T20:24:57.096Z,94.30
2022-08-20T20:27:26.687Z,94.90
2022-08-20T20:30:26.404Z,93.40
2022-08-20T20:32:53.471Z,93.00
2022-08-20T20:35:38.592Z,95.20
2022-08-20T20:38:29.997Z,93.30
2022-08-20T20:41:03.132Z,93.40
2022-08-20T20:43:33.545Z,94.60
2022-08-20T20:46:12.541Z,93.20
2022-08-20T20:48:56.684Z,94.20
2022-08-20T20:51:31.149Z,94.90
2022-08-20T20:54:01.937Z,93.20
2022-08-20T20:56:36.689Z,93.30
2022-08-20T20:59:07.041Z,93.70
2022-08-20T21:01:48.369Z,95.00
2022-08-20T21:04:19.735Z,93.90
2022-08-20T21:06:46.676Z,94.50
2022-08-20T21:09:13.596Z,95.10
2022-08-20T21:11:40.474Z,95.60
2022-08-20T21:14:07.313Z,95.80
2022-08-20T21:16:34.285Z,94.40
2022-08-20T21:19:04.985Z,95.30
2022-08-20T21:21:32.004Z,94.90
2022-08-20T21:23:58.903Z,94.70
2022-08-20T21:26:27.595Z,95.00
2022-08-20T21:28:54.642Z,94.50
2022-08-20T21:31:22.925Z,95.60
2022-08-20T21:33:49.777Z,95.40
2022-08-20T21:36:16.622Z,95.50
2022-08-20T21:38:43.526Z,95.20
2022-08-20T21:41:10.849Z,95.00
2022-08-20T21:43:37.827Z,94.70
2022-08-20T21:46:14.164Z,94.80
2022-08-20T21:48:46.340Z,95.10
2022-08-20T21:51:14.997Z,96.20
2022-08-20T21:53:41.865Z,94.70
2022-08-20T21:56:09.237Z,94.90
2022-08-20T21:58:36.529Z,96.00
2022-08-20T22:01:05.751Z,95.20
2022-08-20T22:03:38.906Z,96.20
2022-08-20T22:06:10.007Z,95.60
2022-08-20T22:08:36.937Z,95.60
2022-08-20T22:11:04.594Z,95.20
2022-08-20T22:13:33.149Z,95.30
2022-08-20T22:16:06.451Z,95.60
2022-08-20T22:18:33.709Z,95.10
2022-08-20T22:21:01.011Z,96.30
2022-08-20T22:23:28.582Z,95.80
2022-08-20T22:25:55.436Z,96.40
2022-08-20T22:28:22.348Z,95.60
2022-08-20T22:30:49.275Z,96.20
2022-08-20T22:33:20.955Z,95.80
2022-08-20T22:35:50.688Z,96.00
2022-08-20T22:38:18.139Z,96.30
2022-08-20T22:40:45.639Z,96.80
2022-08-20T22:43:13.709Z,95.60
2022-08-20T22:45:43.665Z,95.60
2022-08-20T22:48:14.746Z,96.00
2022-08-20T22:50:41.668Z,96.20
2022-08-20T22:53:09.043Z,96.10
2022-08-20T22:55:36.109Z,96.10
2022-08-20T22:58:03.603Z,95.70
2022-08-20T23:00:33.257Z,96.10
2022-08-20T23:03:01.125Z,96.60
2022-08-20T23:05:30.423Z,96.00
2022-08-20T23:07:59.291Z,96.50
2022-08-20T23:10:28.767Z,96.40
2022-08-20T23:12:57.234Z,96.00
2022-08-20T23:15:25.173Z,95.70
2022-08-20T23:17:56.873Z,95.80
2022-08-20T23:20:23.864Z,95.80
2022-08-20T23:22:50.791Z,96.50
2022-08-20T23:25:21.632Z,96.40
2022-08-20T23:27:51.264Z,96.50
2022-08-20T23:30:20.176Z,95.90
2022-08-20T23:32:47.320Z,96.00
2022-08-20T23:35:14.784Z,96.30
2022-08-20T23:37:45.183Z,96.30
2022-08-20T23:40:13.933Z,96.60
2022-08-20T23:42:40.890Z,96.50
2022-08-20T23:45:09.082Z,96.60
2022-08-20T23:47:36.314Z,96.40
2022-08-20T23:50:05.212Z,96.50
2022-08-20T23:52:32.143Z,97.00
2022-08-20T23:54:59.053Z,97.20
2022-08-20T23:57:26.059Z,96.90
2022-08-20T23:59:53.158Z,97.70
